Terminal Aerodrome Forecast
Issued by NWS Cleveland, OH

Home | Current Version | Previous Version | Text Only | Print | Product List | Glossary Off
Versions: 1 2 3 4 5 6 7 8 9 10 11 12 13 14 15 16 17 18 19 20 21 22 23 24 25 26

000
FTUS41 KCLE 241735
TAFCLE
TAF
KCLE 241735Z 2418/2524 20012G18KT P6SM BKN035 OVC120
     FM242300 20012KT 6SM -SHRA VCTS OVC035CB
      TEMPO 2500/2503 3SM -TSRA OVC015CB
     FM250400 20010KT P6SM SCT020 OVC035
      TEMPO 2510/2514 5SM BR BKN020
     FM251500 23012G18KT P6SM SCT020 BKN035=

USA.gov is the U.S. government's official web portal to all federal, state and local government web resources and services.